Terminal Aerodrome Forecast
Issued by NWS Duluth, MN

Home | Current Version | Previous Version | Text Only | Print | Product List | Glossary On
Versions: 1 2 3 4 5 6 7 8 9 10 11 12 13 14 15 16 17 18 19 20 21 22 23 24 25 26 27 28 29 30 31 32 33 34 35 36
000
FTUS43 KDLH 280029 AAB
TAFDLH
TAF AMD
KDLH 280029Z 2800/2824 21010G20KT P6SM SCT100
     FM280200 20010KT P6SM VCTS BKN050CB
     FM280700 29012KT 5SM BR VCSH BKN030
     FM280900 33010KT 3SM BR OVC015
     FM281400 07008KT P6SM VCTS OVC035CB
     FM281800 07010KT P6SM VCSH OVC045=

USA.gov is the U.S. government's official web portal to all federal, state and local government web resources and services.